»·PEaware :: KLM525 KLAX-KSFO

KLM525 :: KLAX-KSFO

FLIGHT INFORMATION

Flight Status: Arrived
Operator:
KLM
More flights by this operator :: More flights under this callsign
Pilot: Kim B. (19519)
Aircraft: BOEING 737-800
(B738)
More flights by this aircraft type
Origin: KLAX Los Angeles Intl
United States
Destination: KSFO San Francisco Intl
United States
More flights between these airports :: More routes between these airports
Route: +SUMMR1 STOKD DCT SERFR SERFR3
File this flight plan on PilotEdge
Remarks:
Altitude:
(Current/Filed)
36,000ft
Speed:
(Current/Filed)
400kts
Departed: 13-Oct-18 03:33 PM
Arrived: 13-Oct-18 04:42 PM
Distance/Time
Traveled:
293nm/1:09
Distance/Time
To Go:
Arrived

Flight Plot

Page will automatically refresh every two minutes.

Flight plan parsing failed; only flown route is shown


Map Options




Map Legend


Flown Route
Filed Route
Departure Airport
Arrival Airport
Navaid (VOR, NDB)
Fix

Horizontal Profiles

Position Reports

Time Latitude Longitude Heading Altitude Ground
Speed
13-Oct-18 14:59 33.940353 -118.397648 52 113ft 0kts
13-Oct-18 15:00 33.940353 -118.397648 52 113ft 0kts
13-Oct-18 15:01 33.940353 -118.397648 52 113ft 0kts
13-Oct-18 15:02 33.940353 -118.397648 52 113ft 0kts
13-Oct-18 15:03 33.940353 -118.397648 52 113ft 0kts
13-Oct-18 15:04 33.940353 -118.397648 52 113ft 0kts
13-Oct-18 15:05 33.940353 -118.397648 52 113ft 0kts
13-Oct-18 15:06 33.940353 -118.397648 52 113ft 0kts
13-Oct-18 15:07 33.940353 -118.397648 52 113ft 0kts
13-Oct-18 15:08 33.940353 -118.397648 52 113ft 0kts
13-Oct-18 15:09 33.940353 -118.397648 52 113ft 0kts
13-Oct-18 15:10 33.940353 -118.397648 52 113ft 0kts
13-Oct-18 15:11 33.940353 -118.397648 52 113ft 0kts
13-Oct-18 15:12 33.940353 -118.397648 52 113ft 0kts
13-Oct-18 15:13 33.940353 -118.397648 52 113ft 0kts
13-Oct-18 15:14 33.940353 -118.397648 52 113ft 0kts
13-Oct-18 15:15 33.940353 -118.397648 52 113ft 0kts
13-Oct-18 15:16 33.940353 -118.397648 52 113ft 0kts
13-Oct-18 15:17 33.940387 -118.398199 140 113ft 2kts
13-Oct-18 15:18 33.940621 -118.398300 174 113ft 0kts
13-Oct-18 15:19 33.940621 -118.398300 174 113ft 0kts
13-Oct-18 15:20 33.940621 -118.398300 174 113ft 0kts
13-Oct-18 15:21 33.940621 -118.398300 174 113ft 0kts
13-Oct-18 15:22 33.940621 -118.398300 174 113ft 0kts
13-Oct-18 15:23 33.940621 -118.398300 174 113ft 0kts
13-Oct-18 15:24 33.940621 -118.398300 174 113ft 0kts
13-Oct-18 15:25 33.940621 -118.398300 174 113ft 0kts
13-Oct-18 15:26 33.940552 -118.398290 172 113ft 2kts
13-Oct-18 15:27 33.939075 -118.397261 90 113ft 7kts
13-Oct-18 15:28 33.939377 -118.394160 83 113ft 14kts
13-Oct-18 15:29 33.940090 -118.387084 82 113ft 27kts
13-Oct-18 15:30 33.940704 -118.381067 83 113ft 4kts
13-Oct-18 15:31 33.940691 -118.380701 111 113ft 0kts
13-Oct-18 15:32 33.940691 -118.380701 111 113ft 0kts
13-Oct-18 15:33 33.940686 -118.380685 111 113ft 0kts
13-Oct-18 15:34 33.939805 -118.380443 257 113ft 0kts
13-Oct-18 15:35 33.936316 -118.415504 264 259ft 164kts
13-Oct-18 15:36 33.940652 -118.471135 284 1774ft 165kts
13-Oct-18 15:37 33.929475 -118.522860 257 2030ft 145kts
13-Oct-18 15:38 33.922748 -118.571058 263 3388ft 156kts
13-Oct-18 15:39 33.917732 -118.630381 267 5069ft 200kts
13-Oct-18 15:40 33.917338 -118.700088 273 6953ft 225kts
13-Oct-18 15:41 33.917122 -118.779046 275 8669ft 247kts
13-Oct-18 15:42 33.917502 -118.863102 278 10332ft 261kts
13-Oct-18 15:43 33.920356 -118.950014 278 11808ft 278kts
13-Oct-18 15:44 33.933742 -119.039374 305 13308ft 275kts
13-Oct-18 15:45 33.974681 -119.118317 307 14793ft 285kts
13-Oct-18 15:46 34.019827 -119.195522 324 16192ft 288kts
13-Oct-18 15:47 34.084895 -119.251063 328 17806ft 285kts
13-Oct-18 15:48 34.146592 -119.303945 327 19243ft 287kts
13-Oct-18 15:49 34.220120 -119.367303 327 21348ft 272kts
13-Oct-18 15:50 34.269600 -119.410041 327 22710ft 264kts
13-Oct-18 15:51 34.329807 -119.462062 327 23862ft 269kts
13-Oct-18 15:52 34.389233 -119.513510 327 24859ft 274kts
13-Oct-18 15:53 34.446572 -119.574981 317 25590ft 288kts
13-Oct-18 15:54 34.504779 -119.647318 317 25707ft 316kts
13-Oct-18 15:55 34.565847 -119.722764 317 26924ft 298kts
13-Oct-18 15:56 34.620088 -119.789923 317 28476ft 268kts
13-Oct-18 15:57 34.671520 -119.853590 317 29335ft 260kts
13-Oct-18 15:58 34.721140 -119.915123 317 30180ft 249kts
13-Oct-18 15:59 34.768203 -119.973591 317 30998ft 235kts
13-Oct-18 16:00 34.811959 -120.028044 317 31672ft 217kts
13-Oct-18 16:01 34.859802 -120.072317 334 31011ft 203kts
13-Oct-18 16:02 34.916604 -120.097755 352 29590ft 223kts
13-Oct-18 16:03 34.976599 -120.088239 19 28183ft 216kts
13-Oct-18 16:04 35.027962 -120.053044 345 27086ft 237kts
13-Oct-18 16:05 35.077530 -120.079613 315 27591ft 219kts
13-Oct-18 16:06 35.113329 -120.128744 320 28138ft 216kts
13-Oct-18 16:07 35.164253 -120.180664 321 27578ft 267kts
13-Oct-18 16:08 35.224557 -120.241849 321 27619ft 298kts
13-Oct-18 16:09 35.284611 -120.316297 289 27339ft 335kts
13-Oct-18 16:10 35.313697 -120.421021 294 28130ft 327kts
13-Oct-18 16:11 35.348615 -120.525697 294 28346ft 337kts
13-Oct-18 16:12 35.384363 -120.634329 288 28317ft 351kts
13-Oct-18 16:13 35.415947 -120.745660 315 28399ft 351kts
13-Oct-18 16:14 35.490205 -120.825166 321 28302ft 358kts
13-Oct-18 16:15 35.567744 -120.896551 323 28298ft 359kts
13-Oct-18 16:16 35.645935 -120.969116 323 28297ft 359kts
13-Oct-18 16:17 35.726325 -121.043968 323 28289ft 363kts
13-Oct-18 16:18 35.805784 -121.118166 323 28296ft 361kts
13-Oct-18 16:19 35.885502 -121.192798 323 28296ft 361kts
13-Oct-18 16:20 35.965538 -121.267926 323 28302ft 361kts
13-Oct-18 16:21 36.045170 -121.342869 323 28318ft 361kts
13-Oct-18 16:22 36.127505 -121.411117 328 28333ft 360kts
13-Oct-18 16:23 36.211088 -121.476144 328 28337ft 360kts
13-Oct-18 16:24 36.295161 -121.541891 328 28341ft 360kts
13-Oct-18 16:25 36.358101 -121.591235 328 28345ft 360kts
13-Oct-18 16:26 36.442692 -121.657713 327 27126ft 374kts
13-Oct-18 16:27 36.512795 -121.713002 328 24208ft 395kts
13-Oct-18 16:28 36.605821 -121.786590 328 20774ft 403kts
13-Oct-18 16:29 36.697644 -121.859458 328 17889ft 367kts
13-Oct-18 16:30 36.782539 -121.906267 347 16325ft 313kts
13-Oct-18 16:31 36.863181 -121.928369 348 14944ft 294kts
13-Oct-18 16:32 36.941621 -121.950223 348 13613ft 289kts
13-Oct-18 16:33 37.017896 -121.978531 344 12310ft 284kts
13-Oct-18 16:34 37.090299 -122.006930 344 11027ft 273kts
13-Oct-18 16:35 37.159367 -122.033967 343 9811ft 267kts
13-Oct-18 16:36 37.228614 -122.061114 343 8727ft 264kts
13-Oct-18 16:37 37.296525 -122.087791 343 7592ft 266kts
13-Oct-18 16:38 37.365249 -122.114886 343 6160ft 252kts
13-Oct-18 16:39 37.433588 -122.139103 345 4188ft 269kts
13-Oct-18 16:40 37.501530 -122.162314 344 3128ft 240kts
13-Oct-18 16:41 37.548815 -122.211867 301 2292ft 218kts
13-Oct-18 16:42 37.577220 -122.276364 298 1470ft 207kts
13-Oct-18 16:43 37.602433 -122.336281 297 460ft 174kts
13-Oct-18 16:44 37.618548 -122.374965 296 17ft 37kts
13-Oct-18 16:45 37.618963 -122.377892 268 17ft 0kts
13-Oct-18 16:46 37.618658 -122.379301 227 16ft 10kts
13-Oct-18 16:47 37.617854 -122.380640 257 16ft 0kts
13-Oct-18 16:48 37.617846 -122.380688 259 16ft 0kts
13-Oct-18 16:49 37.617846 -122.380688 259 16ft 0kts
13-Oct-18 16:50 37.617846 -122.380688 259 16ft 0kts
13-Oct-18 16:51 37.617846 -122.380688 259 16ft 0kts
13-Oct-18 16:52 37.617846 -122.380688 259 16ft 0kts
13-Oct-18 16:53 37.617846 -122.380688 259 16ft 0kts
13-Oct-18 16:54 37.617846 -122.380688 259 16ft 0kts
13-Oct-18 16:55 37.617846 -122.380688 259 16ft 0kts
13-Oct-18 16:56 37.617846 -122.380688 259 16ft 0kts
13-Oct-18 16:57 37.617846 -122.380688 259 16ft 0kts
13-Oct-18 16:58 37.617846 -122.380688 259 16ft 0kts

Navigation Log

Ident Type
Flight plan parsing failed, navigation log unavailable